createdAt,value
2023-08-31T00:00:12.706Z,99988.97
2023-08-31T00:02:41.636Z,99982.91
2023-08-31T00:05:08.931Z,99981.91
2023-08-31T00:07:36.146Z,99969.47
2023-08-31T00:10:10.149Z,99980.22
2023-08-31T00:12:37.902Z,99987.84
2023-08-31T00:15:05.858Z,99997.41
2023-08-31T00:17:33.859Z,100008.44
2023-08-31T00:20:01.160Z,100009.31
2023-08-31T00:22:29.547Z,100004.78
2023-08-31T00:24:56.726Z,100008.44
2023-08-31T00:27:23.916Z,100009.75
2023-08-31T00:29:51.902Z,100008.44
2023-08-31T00:32:19.546Z,100010.16
2023-08-31T00:34:46.846Z,100011.13
2023-08-31T00:37:14.827Z,100016.50
2023-08-31T00:39:42.077Z,100010.28
2023-08-31T00:42:09.294Z,100020.19
2023-08-31T00:44:36.524Z,100017.22
2023-08-31T00:47:04.035Z,100020.91
2023-08-31T00:49:31.407Z,100019.88
2023-08-31T00:52:00.001Z,100028.94
2023-08-31T00:54:28.117Z,100030.50
2023-08-31T00:56:55.966Z,100029.09
2023-08-31T00:59:23.204Z,100032.59
2023-08-31T01:01:57.834Z,100029.09
2023-08-31T01:04:49.359Z,100028.25
2023-08-31T01:07:43.141Z,100036.31
2023-08-31T01:10:16.899Z,100038.97
2023-08-31T01:12:53.520Z,100040.13
2023-08-31T01:15:21.387Z,100039.81
2023-08-31T01:17:56.338Z,100042.38
2023-08-31T01:20:43.651Z,100060.16
2023-08-31T01:23:17.658Z,100046.19
2023-08-31T01:25:44.894Z,100038.16
2023-08-31T01:28:13.140Z,100044.34
2023-08-31T01:30:40.337Z,100046.03
2023-08-31T01:33:07.635Z,100040.84
2023-08-31T01:35:51.023Z,100041.84
2023-08-31T01:38:22.507Z,100059.47
2023-08-31T01:41:01.013Z,100073.06
2023-08-31T01:43:29.383Z,100065.00
2023-08-31T01:45:56.742Z,100077.97
2023-08-31T01:48:23.969Z,100085.34
2023-08-31T01:50:51.150Z,100082.78
2023-08-31T01:53:18.375Z,100081.09
2023-08-31T01:55:45.552Z,100090.28
2023-08-31T01:58:12.719Z,100086.31
2023-08-31T02:00:39.913Z,100086.31
2023-08-31T02:03:07.572Z,100078.66
2023-08-31T02:05:34.956Z,100073.47
2023-08-31T02:08:02.487Z,100068.38
2023-08-31T02:10:30.787Z,100062.84
2023-08-31T02:12:58.355Z,100067.38
2023-08-31T02:15:25.648Z,100072.59
2023-08-31T02:17:55.299Z,100085.03
2023-08-31T02:20:22.626Z,100091.38
2023-08-31T02:22:50.393Z,100084.50
2023-08-31T02:25:17.824Z,100076.56
2023-08-31T02:27:45.041Z,100079.56
2023-08-31T02:30:12.318Z,100081.09
2023-08-31T02:32:39.762Z,100093.53
2023-08-31T02:35:08.126Z,100098.06
2023-08-31T02:37:35.353Z,100092.69
2023-08-31T02:40:02.545Z,100091.13
2023-08-31T02:42:29.723Z,100085.09
2023-08-31T02:44:57.115Z,100094.66
2023-08-31T02:47:24.343Z,100092.69
2023-08-31T02:49:51.579Z,100095.38
2023-08-31T02:52:18.848Z,100089.28
2023-08-31T02:54:46.135Z,100091.97
2023-08-31T02:57:20.404Z,100094.81
2023-08-31T02:59:51.342Z,100092.84
2023-08-31T03:02:18.968Z,100090.16
2023-08-31T03:04:46.244Z,100100.75
2023-08-31T03:07:14.983Z,100099.19
2023-08-31T03:09:42.220Z,100101.75
2023-08-31T03:12:09.456Z,100109.09
2023-08-31T03:14:36.680Z,100112.47
2023-08-31T03:17:04.340Z,100108.97
2023-08-31T03:19:31.552Z,100117.00
2023-08-31T03:21:58.743Z,100109.09
2023-08-31T03:24:25.937Z,100109.09
2023-08-31T03:26:53.178Z,100114.47
2023-08-31T03:29:20.753Z,100118.00
2023-08-31T03:31:48.015Z,100121.84
2023-08-31T03:34:15.228Z,100115.47
2023-08-31T03:36:42.626Z,100119.16
2023-08-31T03:39:10.724Z,100118.16
2023-08-31T03:41:37.899Z,100128.34
2023-08-31T03:44:05.221Z,100126.50
2023-08-31T03:46:32.966Z,100125.38
2023-08-31T03:49:00.228Z,100124.66
2023-08-31T03:51:27.428Z,100133.72
2023-08-31T03:53:56.087Z,100133.53
2023-08-31T03:56:23.527Z,100139.22
2023-08-31T03:58:50.979Z,100133.53
2023-08-31T04:01:18.854Z,100137.06
2023-08-31T04:03:46.440Z,100134.56
2023-08-31T04:06:13.656Z,100137.25
2023-08-31T04:08:40.837Z,100142.31
2023-08-31T04:11:08.104Z,100143.16
2023-08-31T04:13:35.274Z,100147.28
2023-08-31T04:16:02.887Z,100148.81
2023-08-31T04:18:30.169Z,100148.97
2023-08-31T04:21:00.073Z,100143.31
2023-08-31T04:23:27.345Z,100154.06
2023-08-31T04:25:54.659Z,100148.28
2023-08-31T04:28:21.852Z,100150.25
2023-08-31T04:30:50.269Z,100158.84
2023-08-31T04:33:18.281Z,100153.34
2023-08-31T04:35:45.501Z,100154.34
2023-08-31T04:38:12.705Z,100157.03
2023-08-31T04:40:39.968Z,100151.50
2023-08-31T04:43:07.185Z,100161.25
2023-08-31T04:45:34.499Z,100162.94
2023-08-31T04:48:01.759Z,100163.06
2023-08-31T04:50:28.971Z,100162.25
2023-08-31T04:52:56.248Z,100160.25
2023-08-31T04:55:23.839Z,100158.56
2023-08-31T04:57:51.082Z,100163.06
2023-08-31T05:00:18.624Z,100166.78
2023-08-31T05:02:45.954Z,100171.94
2023-08-31T05:05:14.166Z,100171.66
2023-08-31T05:07:41.359Z,100175.22
2023-08-31T05:10:09.190Z,100178.19
2023-08-31T05:12:36.382Z,100174.19
2023-08-31T05:15:03.907Z,100173.66
2023-08-31T05:17:32.082Z,100176.09
2023-08-31T05:19:59.408Z,100187.25
2023-08-31T05:22:26.638Z,100186.84
2023-08-31T05:24:53.881Z,100187.00
2023-08-31T05:27:21.074Z,100193.47
2023-08-31T05:29:48.296Z,100191.94
2023-08-31T05:32:15.502Z,100200.13
2023-08-31T05:34:42.698Z,100203.53
2023-08-31T05:37:09.936Z,100209.75
2023-08-31T05:39:37.206Z,100211.31
2023-08-31T05:42:04.508Z,100208.63
2023-08-31T05:44:31.718Z,100205.47
2023-08-31T05:46:58.939Z,100206.78
2023-08-31T05:49:26.144Z,100221.03
2023-08-31T05:51:53.372Z,100216.09
2023-08-31T05:54:20.566Z,100226.66
2023-08-31T05:56:49.000Z,100223.28
2023-08-31T05:59:16.288Z,100232.59
2023-08-31T06:01:45.434Z,100232.31
2023-08-31T06:04:12.794Z,100238.56
2023-08-31T06:06:40.164Z,100243.94
2023-08-31T06:09:08.161Z,100245.63
2023-08-31T06:11:36.208Z,100244.22
2023-08-31T06:14:04.561Z,100242.81
2023-08-31T06:16:31.829Z,100247.34
2023-08-31T06:18:59.070Z,100245.22
2023-08-31T06:21:26.275Z,100242.56
2023-08-31T06:23:53.505Z,100243.84
2023-08-31T06:26:21.934Z,100246.25
2023-08-31T06:28:49.123Z,100253.41
2023-08-31T06:31:16.352Z,100244.53
2023-08-31T06:33:43.868Z,100245.94
2023-08-31T06:36:11.286Z,100257.63
2023-08-31T06:38:38.568Z,100256.38
2023-08-31T06:41:05.921Z,100266.81
2023-08-31T06:43:33.395Z,100261.72
2023-08-31T06:46:10.806Z,100270.66
2023-08-31T06:48:47.846Z,100266.22
2023-08-31T06:51:15.149Z,100278.13
2023-08-31T06:53:45.692Z,100269.78
2023-08-31T06:56:13.015Z,100274.56
2023-08-31T06:58:40.272Z,100276.69
2023-08-31T07:01:07.902Z,100275.28
2023-08-31T07:03:35.334Z,100288.00
2023-08-31T07:06:03.860Z,100285.56
2023-08-31T07:08:31.834Z,100285.59
2023-08-31T07:10:59.191Z,100291.56
2023-08-31T07:13:26.380Z,100282.78
2023-08-31T07:15:53.706Z,100278.94
2023-08-31T07:18:20.991Z,100287.69
2023-08-31T07:20:48.377Z,100288.84
2023-08-31T07:23:15.656Z,100296.16
2023-08-31T07:25:43.616Z,100300.19
2023-08-31T07:28:11.729Z,100294.94
2023-08-31T07:30:39.075Z,100305.06
2023-08-31T07:33:24.280Z,100307.03
2023-08-31T07:35:54.154Z,100310.94
2023-08-31T07:38:21.909Z,100317.81
2023-08-31T07:40:49.195Z,100303.91
2023-08-31T07:43:16.805Z,100313.59
2023-08-31T07:45:44.080Z,100311.81
2023-08-31T07:48:11.336Z,100309.72
2023-08-31T07:50:38.647Z,100319.34
2023-08-31T07:53:05.876Z,100329.19
2023-08-31T07:55:33.181Z,100323.53
2023-08-31T07:58:02.219Z,100328.84
2023-08-31T08:00:29.477Z,100326.91
2023-08-31T08:02:56.797Z,100337.56
2023-08-31T08:05:24.102Z,100338.75
2023-08-31T08:07:51.305Z,100332.25
2023-08-31T08:10:18.552Z,100341.13
2023-08-31T08:12:46.451Z,100348.91
2023-08-31T08:15:14.242Z,100341.63
2023-08-31T08:17:41.499Z,100338.75
2023-08-31T08:20:10.210Z,100337.84
2023-08-31T08:22:37.453Z,100337.19
2023-08-31T08:25:05.038Z,100339.50
2023-08-31T08:27:34.077Z,100351.44
2023-08-31T08:30:01.276Z,100343.88
2023-08-31T08:32:28.625Z,100330.25
2023-08-31T08:34:55.939Z,100336.75
2023-08-31T08:37:23.148Z,100335.09
2023-08-31T08:39:52.538Z,100323.13
2023-08-31T08:42:21.159Z,100327.50
2023-08-31T08:44:48.510Z,100333.59
2023-08-31T08:47:16.104Z,100326.09
2023-08-31T08:49:44.766Z,100336.53
2023-08-31T08:52:12.425Z,100336.00
2023-08-31T08:54:42.827Z,100338.03
2023-08-31T08:57:10.150Z,100343.69
2023-08-31T08:59:37.446Z,100335.25
2023-08-31T09:02:04.808Z,100350.22
2023-08-31T09:04:33.167Z,100343.44
2023-08-31T09:07:00.445Z,100350.25
2023-08-31T09:09:27.652Z,100347.00
2023-08-31T09:11:56.781Z,100353.50
2023-08-31T09:14:24.086Z,100351.66
2023-08-31T09:16:52.632Z,100351.38
2023-08-31T09:19:24.551Z,100347.28
2023-08-31T09:21:53.350Z,100346.56
2023-08-31T09:24:20.573Z,100339.78
2023-08-31T09:26:53.612Z,100345.28
2023-08-31T09:29:20.998Z,100334.25
2023-08-31T09:31:48.619Z,100348.94
2023-08-31T09:34:16.521Z,100336.50
2023-08-31T09:36:44.164Z,100337.16
2023-08-31T09:39:12.422Z,100337.44
2023-08-31T09:41:55.680Z,100331.72
2023-08-31T09:44:23.279Z,100323.94
2023-08-31T09:46:50.575Z,100335.34
2023-08-31T09:49:18.609Z,100327.75
2023-08-31T09:51:50.847Z,100324.63
2023-08-31T09:54:23.960Z,100321.09
2023-08-31T09:56:51.297Z,100330.56
2023-08-31T09:59:18.779Z,100327.56
2023-08-31T10:01:48.943Z,100324.22
2023-08-31T10:04:16.791Z,100342.00
2023-08-31T10:06:44.641Z,100340.31
2023-08-31T10:09:12.631Z,100358.88
2023-08-31T10:11:41.239Z,100362.50
2023-08-31T10:14:10.204Z,100358.91
2023-08-31T10:16:40.831Z,100359.34
2023-08-31T10:19:09.154Z,100347.34
2023-08-31T10:21:36.462Z,100349.84
2023-08-31T10:24:04.566Z,100349.59
2023-08-31T10:26:32.383Z,100353.41
2023-08-31T10:29:00.588Z,100351.00
2023-08-31T10:31:34.972Z,100341.34
2023-08-31T10:34:11.224Z,100350.84
2023-08-31T10:36:51.275Z,100348.28
2023-08-31T10:39:25.485Z,100342.88
2023-08-31T10:42:02.304Z,100342.06
2023-08-31T10:44:32.212Z,100347.41
2023-08-31T10:47:05.433Z,100341.31
2023-08-31T10:49:38.018Z,100336.06
2023-08-31T10:54:56.488Z,100336.94
2023-08-31T10:57:32.103Z,100337.09
2023-08-31T10:59:59.914Z,100329.16
2023-08-31T11:02:32.937Z,100326.94
2023-08-31T11:05:13.234Z,100328.88
2023-08-31T11:07:42.004Z,100324.47
2023-08-31T11:10:20.585Z,100326.03
2023-08-31T11:12:49.855Z,100312.75
2023-08-31T11:15:20.042Z,100321.91
2023-08-31T11:17:48.013Z,100319.38
2023-08-31T11:20:17.952Z,100309.94
2023-08-31T11:22:56.810Z,100303.03
2023-08-31T11:25:25.552Z,100303.59
2023-08-31T11:27:56.792Z,100309.47
2023-08-31T11:30:24.744Z,100321.81
2023-08-31T11:32:53.041Z,100315.19
2023-08-31T11:35:21.692Z,100320.00
2023-08-31T11:37:52.719Z,100324.09
2023-08-31T11:40:20.438Z,100332.44
2023-08-31T11:42:48.902Z,100333.31
2023-08-31T11:45:16.346Z,100336.84
2023-08-31T11:47:45.281Z,100325.41
2023-08-31T11:50:12.740Z,100317.91
2023-08-31T11:52:40.489Z,100325.56
2023-08-31T11:55:20.350Z,100324.84
2023-08-31T11:57:52.135Z,100324.41
2023-08-31T12:00:21.899Z,100322.00
2023-08-31T12:02:59.690Z,100320.75
2023-08-31T12:05:28.080Z,100324.81
2023-08-31T12:07:56.074Z,100329.16
2023-08-31T12:10:24.985Z,100332.06
2023-08-31T12:13:08.643Z,100339.66
2023-08-31T12:15:36.215Z,100326.72
2023-08-31T12:18:13.788Z,100339.97
2023-08-31T12:20:48.374Z,100345.22
2023-08-31T12:23:18.998Z,100357.22
2023-08-31T12:25:53.739Z,100356.66
2023-08-31T12:28:22.418Z,100354.13
2023-08-31T12:30:54.408Z,100347.91
2023-08-31T12:33:22.647Z,100351.22
2023-08-31T12:35:50.592Z,100352.78
2023-08-31T12:38:18.959Z,100357.56
2023-08-31T12:40:46.214Z,100356.44
2023-08-31T12:43:13.678Z,100358.53
2023-08-31T12:45:41.660Z,100361.94
2023-08-31T12:48:09.237Z,100362.91
2023-08-31T12:50:36.517Z,100361.41
2023-08-31T12:53:04.450Z,100352.53
2023-08-31T12:55:31.823Z,100354.03
2023-08-31T12:57:59.156Z,100351.59
2023-08-31T13:00:26.435Z,100353.50
2023-08-31T13:02:53.778Z,100343.63
2023-08-31T13:05:21.698Z,100352.09
2023-08-31T13:07:48.970Z,100352.09
2023-08-31T13:10:16.353Z,100357.78
2023-08-31T13:12:43.554Z,100354.41
2023-08-31T13:15:11.224Z,100362.28
2023-08-31T13:17:38.575Z,100362.00
2023-08-31T13:20:06.387Z,100366.53
2023-08-31T13:22:33.672Z,100367.84
2023-08-31T13:25:01.047Z,100378.44
2023-08-31T13:27:28.301Z,100383.75
2023-08-31T13:29:55.484Z,100383.75
2023-08-31T13:32:22.718Z,100389.56
2023-08-31T13:34:49.892Z,100404.97
2023-08-31T13:37:17.122Z,100405.69
2023-08-31T13:39:44.362Z,100390.44
2023-08-31T13:42:11.552Z,100389.88
2023-08-31T13:44:38.757Z,100395.41
2023-08-31T13:47:07.189Z,100394.25
2023-08-31T13:49:34.416Z,100404.72
2023-08-31T13:52:01.973Z,100408.38
2023-08-31T13:54:29.236Z,100413.75
2023-08-31T13:56:56.593Z,100403.84
2023-08-31T13:59:23.822Z,100404.00
2023-08-31T14:01:52.403Z,100399.50
2023-08-31T14:04:19.752Z,100402.47
2023-08-31T14:06:47.117Z,100408.41
2023-08-31T14:09:14.305Z,100394.53
2023-08-31T14:11:41.554Z,100390.00
2023-08-31T14:14:12.255Z,100388.56
2023-08-31T14:16:40.104Z,100393.53
2023-08-31T14:19:07.386Z,100389.56
2023-08-31T14:21:34.654Z,100392.56
2023-08-31T14:24:01.874Z,100390.72
2023-08-31T14:26:29.071Z,100412.75
2023-08-31T14:28:56.296Z,100410.91
2023-08-31T14:31:23.529Z,100411.50
2023-08-31T14:33:51.286Z,100404.97
2023-08-31T14:36:18.757Z,100411.91
2023-08-31T14:38:46.950Z,100417.28
2023-08-31T14:41:14.328Z,100428.47
2023-08-31T14:43:41.554Z,100412.06
2023-08-31T14:46:08.977Z,100408.94
2023-08-31T14:48:36.337Z,100411.78
2023-08-31T14:51:03.650Z,100410.38
2023-08-31T14:53:31.071Z,100418.41
2023-08-31T14:55:58.352Z,100417.72
2023-08-31T14:58:25.716Z,100415.72
2023-08-31T15:00:56.213Z,100420.25
2023-08-31T15:03:25.066Z,100421.66
2023-08-31T15:05:52.374Z,100425.06
2023-08-31T15:08:22.809Z,100441.88
2023-08-31T15:10:50.099Z,100454.47
2023-08-31T15:13:17.370Z,100455.59
2023-08-31T15:15:46.252Z,100464.06
2023-08-31T15:18:13.748Z,100468.88
2023-08-31T15:20:43.403Z,100464.06
2023-08-31T15:23:10.777Z,100470.16
2023-08-31T15:25:39.095Z,100456.72
2023-08-31T15:28:08.010Z,100465.34
2023-08-31T15:30:35.364Z,100466.63
2023-08-31T15:33:06.394Z,100471.56
2023-08-31T15:35:34.043Z,100459.41
2023-08-31T15:38:01.438Z,100463.38
2023-08-31T15:40:28.652Z,100460.97
2023-08-31T15:42:56.046Z,100455.56
2023-08-31T15:45:26.230Z,100466.28
2023-08-31T15:47:53.605Z,100466.13
2023-08-31T15:50:20.903Z,100462.44
2023-08-31T15:52:49.950Z,100469.91
2023-08-31T15:55:18.341Z,100461.72
2023-08-31T15:57:45.630Z,100466.25
2023-08-31T16:00:13.107Z,100476.13
2023-08-31T16:02:40.978Z,100476.72
2023-08-31T16:05:08.808Z,100465.38
2023-08-31T16:07:38.836Z,100465.50
2023-08-31T16:10:06.688Z,100471.88
2023-08-31T16:12:33.885Z,100463.38
2023-08-31T16:15:01.595Z,100464.38
2023-08-31T16:17:28.925Z,100457.06
2023-08-31T16:19:57.000Z,100458.59
2023-08-31T16:22:24.297Z,100461.16
2023-08-31T16:24:51.643Z,100451.94
2023-08-31T16:27:18.880Z,100449.97
2023-08-31T16:29:51.640Z,100466.34
2023-08-31T16:32:20.782Z,100482.59
2023-08-31T16:34:49.957Z,100504.59
2023-08-31T16:37:17.167Z,100489.72
2023-08-31T16:39:44.367Z,100477.59
2023-08-31T16:42:12.575Z,100481.00
2023-08-31T16:44:39.840Z,100517.94
2023-08-31T16:47:07.176Z,100516.72
2023-08-31T16:49:34.399Z,100524.78
2023-08-31T16:52:01.922Z,100517.94
2023-08-31T16:54:29.229Z,100506.06
2023-08-31T16:56:56.577Z,100501.09
2023-08-31T16:59:24.241Z,100493.66
2023-08-31T17:01:51.487Z,100490.84
2023-08-31T17:04:18.754Z,100491.09
2023-08-31T17:06:46.080Z,100491.81
2023-08-31T17:09:13.315Z,100500.72
2023-08-31T17:11:40.616Z,100501.50
2023-08-31T17:14:08.608Z,100501.66
2023-08-31T17:16:37.045Z,100507.84
2023-08-31T17:19:04.538Z,100497.25
2023-08-31T17:21:31.838Z,100485.00
2023-08-31T17:23:59.058Z,100480.78
2023-08-31T17:26:26.960Z,100489.41
2023-08-31T17:28:54.529Z,100504.19
2023-08-31T17:31:21.734Z,100494.31
2023-08-31T17:33:49.262Z,100492.88
2023-08-31T17:36:18.995Z,100503.59
2023-08-31T17:38:46.953Z,100494.25
2023-08-31T17:41:14.516Z,100486.22
2023-08-31T17:43:41.767Z,100487.78
2023-08-31T17:46:09.853Z,100490.72
2023-08-31T17:48:38.180Z,100483.25
2023-08-31T17:51:05.589Z,100481.44
2023-08-31T17:53:32.967Z,100473.81
2023-08-31T17:56:00.494Z,100473.28
2023-08-31T17:58:28.291Z,100480.84
2023-08-31T18:00:57.982Z,100481.44
2023-08-31T18:03:25.734Z,100482.28
2023-08-31T18:05:55.956Z,100496.09
2023-08-31T18:08:25.386Z,100497.06
2023-08-31T18:10:53.924Z,100501.72
2023-08-31T18:13:21.516Z,100503.91
2023-08-31T18:15:52.896Z,100509.44
2023-08-31T18:18:21.149Z,100522.56
2023-08-31T18:20:48.609Z,100520.88
2023-08-31T18:23:15.933Z,100528.19
2023-08-31T18:25:48.201Z,100530.81
2023-08-31T18:28:15.796Z,100526.03
2023-08-31T18:30:52.215Z,100531.66
2023-08-31T18:33:21.201Z,100548.59
2023-08-31T18:35:52.466Z,100542.97
2023-08-31T18:38:20.926Z,100530.94
2023-08-31T18:40:50.767Z,100540.41
2023-08-31T18:43:19.433Z,100544.44
2023-08-31T18:45:47.648Z,100538.50
2023-08-31T18:48:16.340Z,100546.78
2023-08-31T18:50:46.736Z,100533.91
2023-08-31T18:53:14.498Z,100539.25
2023-08-31T18:55:42.080Z,100544.22
2023-08-31T18:58:11.721Z,100540.50
2023-08-31T19:00:39.557Z,100540.78
2023-08-31T19:03:06.935Z,100535.50
2023-08-31T19:05:35.222Z,100534.97
2023-08-31T19:08:02.488Z,100530.19
2023-08-31T19:10:30.812Z,100526.56
2023-08-31T19:12:58.011Z,100529.09
2023-08-31T19:15:25.525Z,100516.53
2023-08-31T19:17:54.017Z,100521.06
2023-08-31T19:20:21.205Z,100519.09
2023-08-31T19:22:48.475Z,100530.81
2023-08-31T19:25:20.000Z,100530.66
2023-08-31T19:27:49.606Z,100541.25
2023-08-31T19:30:19.766Z,100537.59
2023-08-31T19:32:47.666Z,100542.22
2023-08-31T19:35:43.159Z,100533.19
2023-08-31T19:38:02.498Z,100540.53
2023-08-31T19:40:29.794Z,100528.81
2023-08-31T19:42:56.997Z,100541.97
2023-08-31T19:45:24.547Z,100546.50
2023-08-31T19:47:54.437Z,100554.53
2023-08-31T19:50:23.730Z,100574.97
2023-08-31T19:52:51.596Z,100569.28
2023-08-31T19:55:19.149Z,100571.72
2023-08-31T19:57:46.689Z,100567.53
2023-08-31T20:00:15.565Z,100559.38
2023-08-31T20:02:42.836Z,100568.00
2023-08-31T20:05:10.130Z,100566.16
2023-08-31T20:07:37.746Z,100558.97
2023-08-31T20:10:05.105Z,100561.53
2023-08-31T20:12:32.366Z,100559.69
2023-08-31T20:14:59.560Z,100562.50
2023-08-31T20:17:28.889Z,100564.06
2023-08-31T20:19:59.666Z,100573.28
2023-08-31T20:22:27.262Z,100573.59
2023-08-31T20:24:54.483Z,100575.69
2023-08-31T20:27:21.683Z,100575.69
2023-08-31T20:29:48.962Z,100576.47
2023-08-31T20:32:16.383Z,100577.09
2023-08-31T20:34:47.533Z,100591.41
2023-08-31T20:37:14.760Z,100586.53
2023-08-31T20:39:45.057Z,100584.84
2023-08-31T20:42:15.239Z,100590.06
2023-08-31T20:44:42.477Z,100596.53
2023-08-31T20:47:10.049Z,100590.91
2023-08-31T20:49:37.745Z,100598.50
2023-08-31T20:52:05.131Z,100594.34
2023-08-31T20:54:32.326Z,100593.41
2023-08-31T20:56:59.500Z,100598.84
2023-08-31T20:59:28.153Z,100603.63
2023-08-31T21:01:56.676Z,100604.59
2023-08-31T21:04:24.189Z,100601.44
2023-08-31T21:06:51.410Z,100602.03
2023-08-31T21:09:18.714Z,100602.19
2023-08-31T21:11:46.170Z,100610.81
2023-08-31T21:14:13.429Z,100611.16
2023-08-31T21:16:40.790Z,100617.72
2023-08-31T21:19:08.615Z,100607.00
2023-08-31T21:21:35.970Z,100613.22
2023-08-31T21:24:03.231Z,100618.19
2023-08-31T21:26:30.488Z,100616.59
2023-08-31T21:28:57.677Z,100624.53
2023-08-31T21:31:24.940Z,100618.44
2023-08-31T21:33:52.422Z,100624.78
2023-08-31T21:36:19.837Z,100631.47
2023-08-31T21:38:47.046Z,100633.75
2023-08-31T21:41:14.264Z,100633.59
2023-08-31T21:43:42.619Z,100640.66
2023-08-31T21:46:09.849Z,100632.03
2023-08-31T21:48:37.147Z,100641.28
2023-08-31T21:51:04.506Z,100628.16
2023-08-31T21:53:31.707Z,100626.44
2023-08-31T21:56:04.225Z,100630.19
2023-08-31T21:58:32.351Z,100632.34
2023-08-31T22:00:59.552Z,100631.03
2023-08-31T22:03:26.932Z,100636.38
2023-08-31T22:05:54.230Z,100635.78
2023-08-31T22:08:21.723Z,100648.44
2023-08-31T22:10:49.180Z,100646.66
2023-08-31T22:13:16.385Z,100649.19
2023-08-31T22:15:45.909Z,100651.13
2023-08-31T22:18:13.355Z,100645.19
2023-08-31T22:20:40.783Z,100656.63
2023-08-31T22:23:07.962Z,100660.88
2023-08-31T22:25:35.238Z,100652.22
2023-08-31T22:28:03.957Z,100652.56
2023-08-31T22:30:31.166Z,100651.31
2023-08-31T22:32:58.421Z,100651.19
2023-08-31T22:35:25.884Z,100655.13
2023-08-31T22:37:53.499Z,100649.75
2023-08-31T22:40:20.868Z,100641.00
2023-08-31T22:42:48.312Z,100634.19
2023-08-31T22:45:15.540Z,100639.41
2023-08-31T22:47:43.975Z,100635.63
2023-08-31T22:50:11.398Z,100636.09
2023-08-31T22:52:38.985Z,100636.44
2023-08-31T22:55:06.949Z,100630.81
2023-08-31T22:57:35.807Z,100635.19
2023-08-31T23:00:05.997Z,100638.09
2023-08-31T23:02:33.201Z,100628.94
2023-08-31T23:05:00.423Z,100633.03
2023-08-31T23:07:28.187Z,100638.38
2023-08-31T23:09:55.348Z,100637.44
2023-08-31T23:12:23.547Z,100644.91
2023-08-31T23:14:50.770Z,100645.75
2023-08-31T23:17:17.980Z,100657.19
2023-08-31T23:19:45.200Z,100660.13
2023-08-31T23:22:12.362Z,100651.22
2023-08-31T23:24:39.542Z,100672.94
2023-08-31T23:27:06.718Z,100666.19
2023-08-31T23:29:34.016Z,100656.47
2023-08-31T23:32:01.213Z,100659.16
2023-08-31T23:34:28.418Z,100665.34
2023-08-31T23:36:55.596Z,100666.72
2023-08-31T23:39:23.021Z,100667.44
2023-08-31T23:41:50.523Z,100667.59
2023-08-31T23:44:17.696Z,100671.13
2023-08-31T23:46:44.892Z,100679.84
2023-08-31T23:49:12.153Z,100672.94
2023-08-31T23:51:39.334Z,100666.00
2023-08-31T23:54:06.663Z,100670.53
2023-08-31T23:56:34.088Z,100673.06
2023-08-31T23:59:01.294Z,100667.59
